Hawks, Michigan
Current Conditions -  °F | °C
As of 6:54 PM on Monday 22 Dec 2014 (Local Time) from KPZQ Reporting Station
Overcast Overcast  
Wind Chill: 25°   Ceiling: 2300
Heat Index: 32°   Visibility: 10mi
Dew Point: 28°   Wind: 8mph
Humidity: 86%   Direction: 100°E
Pressure: 30"   Gusts: NA
Location:  45.3°N, 83.89°W
Report Text: KPZQ 222354Z AUTO 10007KT 10SM OVC023 00/M02 A3000 RMK AO2 T00011020
Loading
Personal Weather Stations






























Interactive Weather Map New forecast layout! Learn more

10-Day Weather Forecast

Advertisements
Track Severe Weather on mobile